Time,TemperatureF,DewpointF,PressureIn,WindDirection,WindDirectionDegrees,WindSpeedMPH,WindSpeedGustMPH,Humidity,HourlyPrecipIn,Conditions,Clouds,dailyrainin,SoftwareType,DateUTC
2013-06-28 00:06:00,62.6,53.4,29.91,North,0,0.0,-999.0,72,0.00,,,0.00,open2300 v1.10,2013-06-28 07:06:00,
2013-06-28 00:21:00,62.4,53.3,29.91,North,0,0.0,-999.0,72,0.00,,,0.00,open2300 v1.10,2013-06-28 07:21:00,
2013-06-28 00:36:00,62.4,53.3,29.91,North,0,0.0,-999.0,72,0.00,,,0.00,open2300 v1.10,2013-06-28 07:36:00,
2013-06-28 00:51:00,62.4,53.3,29.90,North,0,0.0,-999.0,72,0.00,,,0.00,open2300 v1.10,2013-06-28 07:51:00,
2013-06-28 01:07:00,62.4,53.3,29.91,North,0,0.0,-999.0,72,0.00,,,0.00,open2300 v1.10,2013-06-28 08:07:00,
2013-06-28 01:21:00,62.2,53.5,29.90,North,0,0.0,-999.0,73,0.00,,,0.00,open2300 v1.10,2013-06-28 08:21:00,
2013-06-28 01:36:00,62.2,53.5,29.90,North,0,0.0,-999.0,73,0.00,,,0.00,open2300 v1.10,2013-06-28 08:36:00,
2013-06-28 01:51:00,62.2,53.5,29.90,North,0,0.0,-999.0,73,0.00,,,0.00,open2300 v1.10,2013-06-28 08:51:00,
2013-06-28 02:07:00,61.9,53.1,29.90,North,0,0.0,-999.0,73,0.00,,,0.00,open2300 v1.10,2013-06-28 09:07:00,
2013-06-28 02:21:00,61.5,53.2,29.90,North,0,0.0,-999.0,74,0.00,,,0.00,open2300 v1.10,2013-06-28 09:21:00,
2013-06-28 02:36:00,61.3,53.0,29.90,North,0,0.0,-999.0,74,0.00,,,0.00,open2300 v1.10,2013-06-28 09:36:00,
2013-06-28 02:51:00,61.5,53.2,29.89,North,0,0.0,-999.0,74,0.00,,,0.00,open2300 v1.10,2013-06-28 09:51:00,
2013-06-28 03:07:00,61.5,53.2,29.89,North,0,0.0,-999.0,74,0.00,,,0.00,open2300 v1.10,2013-06-28 10:07:00,
2013-06-28 03:21:00,61.9,53.5,29.89,North,0,0.0,-999.0,74,0.00,,,0.00,open2300 v1.10,2013-06-28 10:21:00,
2013-06-28 03:36:00,62.2,53.8,29.88,North,0,0.0,-999.0,74,0.00,,,0.00,open2300 v1.10,2013-06-28 10:36:00,
2013-06-28 03:51:00,61.5,53.2,29.88,North,0,0.0,-999.0,74,0.00,,,0.00,open2300 v1.10,2013-06-28 10:51:00,
2013-06-28 04:07:00,61.3,53.4,29.88,North,0,0.0,-999.0,75,0.00,,,0.00,open2300 v1.10,2013-06-28 11:07:00,
2013-06-28 04:21:00,61.3,53.4,29.87,North,0,0.0,-999.0,75,0.00,,,0.00,open2300 v1.10,2013-06-28 11:21:00,
2013-06-28 04:36:00,61.0,53.0,29.87,North,0,0.0,-999.0,75,0.00,,,0.00,open2300 v1.10,2013-06-28 11:36:00,
2013-06-28 04:51:00,61.3,53.7,29.87,North,0,0.0,-999.0,76,0.00,,,0.00,open2300 v1.10,2013-06-28 11:51:00,
2013-06-28 05:07:00,61.3,53.7,29.87,North,0,0.0,-999.0,76,0.00,,,0.00,open2300 v1.10,2013-06-28 12:07:00,
2013-06-28 05:21:00,61.3,53.7,29.87,North,0,0.0,-999.0,76,0.00,,,0.00,open2300 v1.10,2013-06-28 12:21:00,
2013-06-28 05:36:00,61.3,53.7,29.87,North,0,0.0,-999.0,76,0.00,,,0.00,open2300 v1.10,2013-06-28 12:36:00,
2013-06-28 05:51:00,61.5,53.9,29.87,North,0,0.0,-999.0,76,0.00,,,0.00,open2300 v1.10,2013-06-28 12:51:00,
2013-06-28 06:07:00,61.5,53.9,29.87,North,0,0.0,-999.0,76,0.00,,,0.00,open2300 v1.10,2013-06-28 13:07:00,
2013-06-28 06:21:00,61.5,53.9,29.88,North,0,0.0,-999.0,76,0.00,,,0.00,open2300 v1.10,2013-06-28 13:21:00,
2013-06-28 06:36:00,61.9,54.2,29.88,North,0,0.0,-999.0,76,0.00,,,0.00,open2300 v1.10,2013-06-28 13:36:00,
2013-06-28 07:07:00,62.2,54.5,29.88,North,0,0.0,-999.0,76,0.00,,,0.00,open2300 v1.10,2013-06-28 14:07:00,
2013-06-28 07:21:00,62.6,54.9,29.88,North,0,0.0,-999.0,76,0.00,,,0.00,open2300 v1.10,2013-06-28 14:21:00,
2013-06-28 07:36:00,63.0,55.2,29.88,North,0,0.0,-999.0,76,0.00,,,0.00,open2300 v1.10,2013-06-28 14:36:00,
2013-06-28 07:51:00,63.5,55.8,29.88,North,0,0.0,-999.0,76,0.00,,,0.00,open2300 v1.10,2013-06-28 14:51:00,
2013-06-28 08:06:00,64.0,56.3,29.88,North,0,0.0,-999.0,76,0.00,,,0.00,open2300 v1.10,2013-06-28 15:06:00,
2013-06-28 08:21:00,64.6,56.8,29.88,North,0,0.0,-999.0,76,0.00,,,0.00,open2300 v1.10,2013-06-28 15:21:00,
2013-06-28 08:36:00,65.1,57.3,29.88,North,0,0.0,-999.0,76,0.00,,,0.00,open2300 v1.10,2013-06-28 15:36:00,
2013-06-28 08:51:00,65.3,57.2,29.88,North,0,0.0,-999.0,75,0.00,,,0.00,open2300 v1.10,2013-06-28 15:51:00,
2013-06-28 09:06:00,65.8,57.7,29.89,North,0,0.0,-999.0,75,0.00,,,0.00,open2300 v1.10,2013-06-28 16:06:00,
2013-06-28 09:21:00,66.2,58.0,29.88,North,0,0.0,-999.0,75,0.00,,,0.00,open2300 v1.10,2013-06-28 16:21:00,
2013-06-28 09:36:00,66.7,58.5,29.87,North,0,0.0,-999.0,75,0.00,,,0.00,open2300 v1.10,2013-06-28 16:36:00,
2013-06-28 09:51:00,67.5,59.3,29.87,North,0,0.0,-999.0,75,0.00,,,0.00,open2300 v1.10,2013-06-28 16:51:00,
2013-06-28 10:06:00,67.8,59.2,29.87,North,0,0.0,-999.0,74,0.00,,,0.00,open2300 v1.10,2013-06-28 17:06:00,
2013-06-28 10:21:00,68.4,59.8,29.86,North,0,0.0,-999.0,74,0.00,,,0.00,open2300 v1.10,2013-06-28 17:21:00,
2013-06-28 10:36:00,68.9,60.2,29.87,North,0,0.0,-999.0,74,0.00,,,0.00,open2300 v1.10,2013-06-28 17:36:00,
2013-06-28 10:51:00,69.4,60.3,29.87,North,0,0.0,-999.0,73,0.00,,,0.00,open2300 v1.10,2013-06-28 17:51:00,
2013-06-28 11:06:00,70.0,60.8,29.87,North,0,0.0,-999.0,73,0.00,,,0.00,open2300 v1.10,2013-06-28 18:06:00,
2013-06-28 11:21:00,70.9,61.4,29.86,North,0,0.0,-999.0,72,0.00,,,0.00,open2300 v1.10,2013-06-28 18:21:00,
2013-06-28 11:36:00,72.0,61.2,29.86,North,0,0.0,-999.0,69,0.00,,,0.00,open2300 v1.10,2013-06-28 18:36:00,
2013-06-28 11:51:00,72.7,61.1,29.87,North,0,0.0,-999.0,67,0.00,,,0.00,open2300 v1.10,2013-06-28 18:51:00,
2013-06-28 12:06:00,73.2,60.7,29.87,North,0,0.0,-999.0,65,0.00,,,0.00,open2300 v1.10,2013-06-28 19:06:00,
2013-06-28 12:21:00,72.7,59.8,29.87,North,0,0.0,-999.0,64,0.00,,,0.00,open2300 v1.10,2013-06-28 19:21:00,
2013-06-28 12:36:00,72.3,59.0,29.86,North,0,0.0,-999.0,63,0.00,,,0.00,open2300 v1.10,2013-06-28 19:36:00,
2013-06-28 12:51:00,72.3,58.5,29.86,North,0,0.0,-999.0,62,0.00,,,0.00,open2300 v1.10,2013-06-28 19:51:00,
2013-06-28 13:06:00,71.4,57.7,29.87,North,0,0.0,-999.0,62,0.00,,,0.00,open2300 v1.10,2013-06-28 20:06:00,
2013-06-28 13:21:00,70.3,57.1,29.87,North,0,0.0,-999.0,63,0.00,,,0.00,open2300 v1.10,2013-06-28 20:21:00,
2013-06-28 13:36:00,69.4,56.7,29.86,North,0,0.0,-999.0,64,0.00,,,0.00,open2300 v1.10,2013-06-28 20:36:00,
2013-06-28 13:51:00,68.5,56.3,29.86,North,0,0.0,-999.0,65,0.00,,,0.00,open2300 v1.10,2013-06-28 20:51:00,
2013-06-28 14:06:00,67.8,56.0,29.86,North,0,0.0,-999.0,66,0.00,,,0.00,open2300 v1.10,2013-06-28 21:06:00,
2013-06-28 14:21:00,67.6,56.3,29.85,North,0,0.0,-999.0,67,0.00,,,0.00,open2300 v1.10,2013-06-28 21:21:00,
2013-06-28 14:36:00,67.8,56.4,29.85,North,0,0.0,-999.0,67,0.00,,,0.00,open2300 v1.10,2013-06-28 21:36:00,
2013-06-28 14:51:00,69.1,57.6,29.84,North,0,0.0,-999.0,67,0.00,,,0.00,open2300 v1.10,2013-06-28 21:51:00,
2013-06-28 15:06:00,69.8,57.9,29.84,North,0,0.0,-999.0,66,0.00,,,0.00,open2300 v1.10,2013-06-28 22:06:00,
2013-06-28 15:21:00,70.3,58.0,29.84,North,0,0.0,-999.0,65,0.00,,,0.00,open2300 v1.10,2013-06-28 22:21:00,
2013-06-28 15:36:00,70.5,58.2,29.83,North,0,0.0,-999.0,65,0.00,,,0.00,open2300 v1.10,2013-06-28 22:36:00,
2013-06-28 15:51:00,70.9,58.5,29.82,North,0,0.0,-999.0,65,0.00,,,0.00,open2300 v1.10,2013-06-28 22:51:00,
2013-06-28 16:06:00,71.2,58.8,29.81,North,0,0.0,-999.0,65,0.00,,,0.00,open2300 v1.10,2013-06-28 23:06:00,
2013-06-28 16:21:00,71.6,58.8,29.81,North,0,0.0,-999.0,64,0.00,,,0.00,open2300 v1.10,2013-06-28 23:21:00,
2013-06-28 16:36:00,71.4,58.1,29.81,North,0,0.0,-999.0,63,0.00,,,0.00,open2300 v1.10,2013-06-28 23:36:00,
2013-06-28 16:51:00,71.8,58.5,29.81,North,0,0.0,-999.0,63,0.00,,,0.00,open2300 v1.10,2013-06-28 23:51:00,
2013-06-28 17:06:00,72.0,58.2,29.80,North,0,0.0,-999.0,62,0.00,,,0.00,open2300 v1.10,2013-06-29 00:06:00,
2013-06-28 17:21:00,72.3,58.5,29.80,North,0,0.0,-999.0,62,0.00,,,0.00,open2300 v1.10,2013-06-29 00:21:00,
2013-06-28 17:36:00,72.7,58.9,29.80,North,0,0.0,-999.0,62,0.00,,,0.00,open2300 v1.10,2013-06-29 00:36:00,
2013-06-28 17:51:00,73.2,58.9,29.79,North,0,0.0,-999.0,61,0.00,,,0.00,open2300 v1.10,2013-06-29 00:51:00,
2013-06-28 18:06:00,73.8,59.0,29.79,North,0,0.0,-999.0,60,0.00,,,0.00,open2300 v1.10,2013-06-29 01:06:00,
2013-06-28 18:21:00,74.1,58.3,29.79,North,0,0.0,-999.0,58,0.00,,,0.00,open2300 v1.10,2013-06-29 01:21:00,
2013-06-28 18:36:00,73.4,57.6,29.79,North,0,0.0,-999.0,58,0.00,,,0.00,open2300 v1.10,2013-06-29 01:36:00,
2013-06-28 18:51:00,73.4,57.6,29.79,North,0,0.0,-999.0,58,0.00,,,0.00,open2300 v1.10,2013-06-29 01:51:00,
2013-06-28 19:06:00,73.4,57.6,29.79,North,0,0.0,-999.0,58,0.00,,,0.00,open2300 v1.10,2013-06-29 02:06:00,
2013-06-28 19:21:00,73.6,57.3,29.79,North,0,0.0,-999.0,57,0.00,,,0.00,open2300 v1.10,2013-06-29 02:21:00,
2013-06-28 19:36:00,73.6,57.3,29.79,North,0,0.0,-999.0,57,0.00,,,0.00,open2300 v1.10,2013-06-29 02:36:00,
2013-06-28 19:51:00,73.6,57.3,29.79,North,0,0.0,-999.0,57,0.00,,,0.00,open2300 v1.10,2013-06-29 02:51:00,
2013-06-28 20:06:00,73.0,57.3,29.79,North,0,0.0,-999.0,58,0.00,,,0.00,open2300 v1.10,2013-06-29 03:06:00,
2013-06-28 20:21:00,71.8,56.2,29.79,North,0,0.0,-999.0,58,0.00,,,0.00,open2300 v1.10,2013-06-29 03:21:00,
2013-06-28 20:36:00,70.2,55.2,29.79,North,0,0.0,-999.0,59,0.00,,,0.00,open2300 v1.10,2013-06-29 03:36:00,
2013-06-28 20:51:00,68.7,54.7,29.79,North,0,0.0,-999.0,61,0.00,,,0.00,open2300 v1.10,2013-06-29 03:51:00,
2013-06-28 21:06:00,67.8,54.7,29.80,North,0,0.0,-999.0,63,0.00,,,0.00,open2300 v1.10,2013-06-29 04:06:00,
2013-06-28 21:21:00,66.9,54.3,29.80,North,0,0.0,-999.0,64,0.00,,,0.00,open2300 v1.10,2013-06-29 04:21:00,
2013-06-28 21:36:00,66.0,53.9,29.80,North,0,0.0,-999.0,65,0.00,,,0.00,open2300 v1.10,2013-06-29 04:36:00,
2013-06-28 21:51:00,65.7,53.9,29.80,North,0,0.0,-999.0,66,0.00,,,0.00,open2300 v1.10,2013-06-29 04:51:00,
2013-06-28 22:06:00,65.5,53.8,29.81,North,0,0.0,-999.0,66,0.00,,,0.00,open2300 v1.10,2013-06-29 05:06:00,
2013-06-28 22:21:00,65.1,53.4,29.81,North,0,0.0,-999.0,66,0.00,,,0.00,open2300 v1.10,2013-06-29 05:21:00,
2013-06-28 22:36:00,64.9,53.7,29.81,North,0,0.0,-999.0,67,0.00,,,0.00,open2300 v1.10,2013-06-29 05:36:00,
2013-06-28 22:51:00,64.8,53.5,29.82,North,0,0.0,-999.0,67,0.00,,,0.00,open2300 v1.10,2013-06-29 05:51:00,
2013-06-28 23:06:00,64.8,53.5,29.81,North,0,0.0,-999.0,67,0.00,,,0.00,open2300 v1.10,2013-06-29 06:06:00,
2013-06-28 23:21:00,64.6,53.4,29.81,North,0,0.0,-999.0,67,0.00,,,0.00,open2300 v1.10,2013-06-29 06:21:00,
2013-06-28 23:36:00,64.6,53.8,29.81,North,0,0.0,-999.0,68,0.00,,,0.00,open2300 v1.10,2013-06-29 06:36:00,
2013-06-28 23:51:00,64.6,53.8,29.81,North,0,0.0,-999.0,68,0.00,,,0.00,open2300 v1.10,2013-06-29 06:51:00,